Time;durP1;ratioP1;P1;durP2;ratioP2;P2;SDS_P1;SDS_P2;PMS_P1;PMS_P2;Temp;Humidity;BMP_temperature;BMP_pressure;BME280_temperature;BME280_humidity;BME280_pressure;Samples;Min_cycle;Max_cycle;Signal;HPM_P1;HPM_P2
2023/07/09 00:01:25;;;;;;;8.38;4.50;;;;;;;-143.98;0.00;101379.13;6202191;23;20027;-86
2023/07/09 00:03:53;;;;;;;12.88;5.72;;;;;;;-143.98;0.00;101379.13;6194058;23;20024;-86
2023/07/09 00:06:27;;;;;;;9.43;5.57;;;;;;;-143.98;0.00;101379.13;6221573;23;20028;-86
2023/07/09 00:08:54;;;;;;;8.57;5.47;;;;;;;-143.98;0.00;101379.13;6219358;23;20472;-86
2023/07/09 00:11:21;;;;;;;9.27;5.63;;;;;;;-143.98;0.00;101379.13;6222026;23;20028;-86
2023/07/09 00:13:55;;;;;;;12.40;6.32;;;;;;;-143.98;0.00;101379.13;6201709;23;20031;-86
2023/07/09 00:16:33;;;;;;;8.95;5.30;;;;;;;-143.98;0.00;101379.13;6226756;23;20024;-86
2023/07/09 00:19:05;;;;;;;7.47;5.45;;;;;;;-143.98;0.00;101379.13;6222844;23;20048;-87
2023/07/09 00:21:41;;;;;;;8.88;5.30;;;;;;;-143.98;0.00;101379.13;6194998;23;20398;-86
2023/07/09 00:24:15;;;;;;;8.45;5.22;;;;;;;-143.98;0.00;101379.13;6197169;23;20043;-86
2023/07/09 00:26:44;;;;;;;12.27;5.55;;;;;;;-143.98;0.00;101379.13;6198821;23;20039;-86
2023/07/09 00:29:11;;;;;;;13.77;6.20;;;;;;;-143.98;0.00;101379.13;6221819;23;20028;-86
2023/07/09 00:31:48;;;;;;;9.10;4.75;;;;;;;-143.98;0.00;101379.13;6227958;23;20032;-86
2023/07/09 00:34:35;;;;;;;12.95;5.15;;;;;;;-143.98;0.00;101379.13;6206993;23;20028;-86
2023/07/09 00:37:25;;;;;;;12.10;6.32;;;;;;;-143.98;0.00;101379.13;6198166;23;20028;-86
2023/07/09 00:40:00;;;;;;;10.30;6.57;;;;;;;-143.98;0.00;101379.13;6199673;23;20028;-85
2023/07/09 00:42:27;;;;;;;10.10;6.20;;;;;;;-143.98;0.00;101379.13;6199279;23;20040;-86
2023/07/09 00:45:24;;;;;;;8.27;5.63;;;;;;;-143.98;0.00;101379.13;6202477;23;20051;-86
2023/07/09 00:48:12;;;;;;;7.30;4.87;;;;;;;-143.98;0.00;101379.13;6202634;23;20110;-86
2023/07/09 00:50:57;;;;;;;8.60;5.10;;;;;;;-143.98;0.00;101379.13;6199696;23;20087;-86
2023/07/09 00:53:29;;;;;;;10.02;5.05;;;;;;;-143.98;0.00;101379.13;6222341;23;20035;-86
2023/07/09 00:56:52;;;;;;;6.47;5.18;;;;;;;-143.98;0.00;101379.13;6204080;23;20374;-86
2023/07/09 00:59:24;;;;;;;9.20;4.97;;;;;;;-143.98;0.00;101379.13;6191374;23;20043;-86
2023/07/09 01:02:10;;;;;;;6.82;4.65;;;;;;;-143.98;0.00;101379.13;6198044;23;20090;-86
2023/07/09 01:04:47;;;;;;;7.45;5.00;;;;;;;-143.98;0.00;101379.13;6223200;23;20032;-86
2023/07/09 01:07:17;;;;;;;8.80;4.88;;;;;;;-143.98;0.00;101379.13;6200943;23;20466;-86
2023/07/09 01:09:45;;;;;;;10.65;5.35;;;;;;;-143.98;0.00;101379.13;6199426;23;20370;-86
2023/07/09 01:12:33;;;;;;;7.25;4.72;;;;;;;-143.98;0.00;101379.13;6225049;23;20103;-86
2023/07/09 01:15:15;;;;;;;8.07;4.80;;;;;;;-143.98;0.00;101379.13;6201588;23;20028;-85
2023/07/09 01:17:45;;;;;;;11.80;4.90;;;;;;;-143.98;0.00;101379.13;6201264;23;20039;-86
2023/07/09 01:20:25;;;;;;;6.55;4.82;;;;;;;-143.98;0.00;101379.13;6193674;23;20025;-86
2023/07/09 01:22:54;;;;;;;6.97;4.57;;;;;;;-143.98;0.00;101379.13;6218719;23;20089;-85
2023/07/09 01:25:28;;;;;;;9.50;4.45;;;;;;;-143.98;0.00;101379.13;6225551;23;20335;-86
2023/07/09 01:27:58;;;;;;;6.72;4.95;;;;;;;-143.98;0.00;101379.13;6221326;23;20123;-86
2023/07/09 01:30:36;;;;;;;7.97;4.60;;;;;;;-143.98;0.00;101379.13;6198013;23;20113;-86
2023/07/09 01:33:17;;;;;;;5.93;4.25;;;;;;;-143.98;0.00;101379.13;6222574;23;20054;-87
2023/07/09 01:35:52;;;;;;;6.97;4.57;;;;;;;-143.98;0.00;101379.13;6224082;23;20032;-86
2023/07/09 01:38:30;;;;;;;7.93;4.88;;;;;;;-143.98;0.00;101379.13;6223763;23;20027;-85
2023/07/09 01:40:58;;;;;;;7.53;4.47;;;;;;;-143.98;0.00;101379.13;6195550;23;20212;-86
2023/07/09 01:43:30;;;;;;;7.60;4.90;;;;;;;-143.98;0.00;101379.13;6196220;23;20091;-85
2023/07/09 01:46:00;;;;;;;9.23;5.00;;;;;;;-143.98;0.00;101379.13;6222286;23;20301;-86
2023/07/09 01:48:40;;;;;;;9.35;4.55;;;;;;;-143.98;0.00;101379.13;6234446;23;20042;-86
2023/07/09 01:51:16;;;;;;;7.13;4.50;;;;;;;-143.98;0.00;101379.13;6227254;23;20040;-86
2023/07/09 01:53:45;;;;;;;10.20;4.45;;;;;;;-143.98;0.00;101379.13;6197278;23;20078;-86
2023/07/09 01:56:21;;;;;;;7.60;4.32;;;;;;;-143.98;0.00;101379.13;6199584;23;20055;-86
2023/07/09 01:58:48;;;;;;;7.40;4.13;;;;;;;-143.98;0.00;101379.13;6197782;23;20070;-86
2023/07/09 02:01:33;;;;;;;6.95;4.72;;;;;;;-143.98;0.00;101379.13;6201767;23;20118;-86
2023/07/09 02:04:03;;;;;;;7.07;4.97;;;;;;;-143.98;0.00;101379.13;6224384;23;20094;-87
2023/07/09 02:06:50;;;;;;;8.90;4.35;;;;;;;-143.98;0.00;101379.13;6194351;23;20028;-86
2023/07/09 02:09:23;;;;;;;7.30;4.88;;;;;;;-143.98;0.00;101379.13;6224317;23;20089;-86
2023/07/09 02:11:53;;;;;;;6.68;4.97;;;;;;;-143.98;0.00;101379.13;6225201;23;20080;-86
2023/07/09 02:14:41;;;;;;;8.15;5.07;;;;;;;-143.98;0.00;101379.13;6208981;23;20059;-87
2023/07/09 02:17:18;;;;;;;7.10;4.43;;;;;;;-143.98;0.00;101379.13;6202959;23;20086;-86
2023/07/09 02:19:47;;;;;;;6.70;4.97;;;;;;;-143.98;0.00;101379.13;6224530;23;20054;-86
2023/07/09 02:22:28;;;;;;;8.38;5.15;;;;;;;-143.98;0.00;101379.13;6197616;23;20023;-86
2023/07/09 02:24:57;;;;;;;8.70;5.28;;;;;;;-143.98;0.00;101379.13;6221350;23;20322;-86
2023/07/09 02:27:30;;;;;;;6.18;4.57;;;;;;;-143.98;0.00;101379.13;6224956;23;20038;-86
2023/07/09 02:30:02;;;;;;;8.00;5.32;;;;;;;-143.98;0.00;101379.13;6198906;23;20031;-86
2023/07/09 02:32:30;;;;;;;6.70;5.05;;;;;;;-143.98;0.00;101379.13;6223611;23;20016;-86
2023/07/09 02:35:07;;;;;;;11.57;5.03;;;;;;;-143.98;0.00;101379.13;6223698;23;20031;-86
2023/07/09 02:37:52;;;;;;;6.07;4.82;;;;;;;-143.98;0.00;101379.13;6252525;23;20084;-86
2023/07/09 02:40:19;;;;;;;6.18;4.63;;;;;;;-143.98;0.00;101379.13;6199458;23;20028;-86
2023/07/09 02:42:50;;;;;;;8.68;5.38;;;;;;;-143.98;0.00;101379.13;6198133;23;20028;-86
2023/07/09 02:45:21;;;;;;;7.97;5.75;;;;;;;-143.98;0.00;101379.13;6223335;23;20082;-86
2023/07/09 02:47:50;;;;;;;5.75;4.45;;;;;;;-143.98;0.00;101379.13;6197377;23;20024;-86
2023/07/09 02:50:24;;;;;;;7.18;5.00;;;;;;;-143.98;0.00;101379.13;6196655;23;20091;-86
2023/07/09 02:52:54;;;;;;;7.90;5.35;;;;;;;-143.98;0.00;101379.13;6219714;23;20024;-86
2023/07/09 02:55:26;;;;;;;7.40;5.28;;;;;;;-143.98;0.00;101379.13;6223733;23;20027;-86
2023/07/09 02:57:55;;;;;;;7.18;4.50;;;;;;;-143.98;0.00;101379.13;6224867;23;20036;-86
2023/07/09 03:00:22;;;;;;;6.32;4.70;;;;;;;-143.98;0.00;101379.13;6202093;23;20090;-86
2023/07/09 03:03:08;;;;;;;8.10;5.35;;;;;;;-143.98;0.00;101379.13;6203320;23;20035;-86
2023/07/09 03:05:37;;;;;;;9.52;4.82;;;;;;;-143.98;0.00;101379.13;6229743;23;20063;-86
2023/07/09 03:08:10;;;;;;;7.30;4.63;;;;;;;-143.98;0.00;101379.13;6209871;23;20330;-86
2023/07/09 03:10:45;;;;;;;8.27;4.68;;;;;;;-143.98;0.00;101379.13;6203300;23;20028;-86
2023/07/09 03:13:15;;;;;;;7.22;5.13;;;;;;;-143.98;0.00;101379.13;6204967;23;20024;-86
2023/07/09 03:15:55;;;;;;;6.97;5.35;;;;;;;-143.98;0.00;101379.13;6203146;23;20028;-86
2023/07/09 03:18:29;;;;;;;7.72;5.18;;;;;;;-143.98;0.00;101379.13;6253391;23;20027;-86
2023/07/09 03:20:56;;;;;;;7.55;4.85;;;;;;;-143.98;0.00;101379.13;6199298;23;20032;-86
2023/07/09 03:26:30;;;;;;;7.30;4.78;;;;;;;-143.98;0.00;101379.13;6234386;23;20027;-86
2023/07/09 03:29:48;;;;;;;9.27;4.93;;;;;;;-143.98;0.00;101379.13;6204278;23;20028;-86
2023/07/09 03:32:22;;;;;;;8.25;6.18;;;;;;;-143.98;0.00;101379.13;6228184;23;20053;-86
2023/07/09 03:34:49;;;;;;;7.10;5.15;;;;;;;-143.98;0.00;101379.13;6202914;23;20279;-86
2023/07/09 03:37:31;;;;;;;8.20;5.28;;;;;;;-143.98;0.00;101379.13;6228516;23;20027;-87
2023/07/09 03:40:19;;;;;;;6.63;5.13;;;;;;;-143.98;0.00;101379.13;6227370;23;20028;-87
2023/07/09 03:42:52;;;;;;;11.00;5.30;;;;;;;-143.98;0.00;101379.13;6254972;23;20028;-87
2023/07/09 03:45:25;;;;;;;8.55;4.85;;;;;;;-143.98;0.00;101379.13;6254285;23;20203;-86
2023/07/09 03:47:59;;;;;;;7.35;4.97;;;;;;;-143.98;0.00;101379.13;6206244;23;20028;-86
2023/07/09 03:50:32;;;;;;;9.93;5.45;;;;;;;-143.98;0.00;101379.13;6228954;23;20202;-86
2023/07/09 03:53:00;;;;;;;6.63;4.63;;;;;;;-143.98;0.00;101379.13;6227986;23;20112;-86
2023/07/09 03:55:35;;;;;;;6.45;4.82;;;;;;;-143.98;0.00;101379.13;6204654;23;20310;-86
2023/07/09 03:58:02;;;;;;;8.38;4.32;;;;;;;-143.98;0.00;101379.13;6202841;23;20086;-86
2023/07/09 04:00:36;;;;;;;9.43;4.85;;;;;;;-143.98;0.00;101379.13;6203378;23;20139;-87
2023/07/09 04:03:10;;;;;;;7.05;4.75;;;;;;;-143.98;0.00;101379.13;6208432;23;20035;-86
2023/07/09 04:05:44;;;;;;;8.60;5.50;;;;;;;-143.98;0.00;101379.13;6228955;23;20118;-86
2023/07/09 04:08:11;;;;;;;6.93;4.80;;;;;;;-143.98;0.00;101379.13;6203829;23;20030;-87
2023/07/09 04:10:42;;;;;;;7.05;4.70;;;;;;;-143.98;0.00;101379.13;6202446;23;20107;-85
2023/07/09 04:13:09;;;;;;;7.05;4.60;;;;;;;-143.98;0.00;101379.13;6202509;23;20044;-86
2023/07/09 04:15:53;;;;;;;6.07;3.90;;;;;;;-143.98;0.00;101379.13;6225281;23;20028;-86
2023/07/09 04:18:26;;;;;;;6.88;4.43;;;;;;;-143.98;0.00;101379.13;6216493;22;20223;-86
2023/07/09 04:20:55;;;;;;;7.75;4.68;;;;;;;-143.98;0.00;101379.13;6234749;23;20405;-86
2023/07/09 04:23:45;;;;;;;10.00;4.45;;;;;;;-143.98;0.00;101379.13;6205568;23;20024;-87
2023/07/09 04:29:58;;;;;;;7.30;4.32;;;;;;;-143.98;0.00;101379.13;6200321;23;20035;-85
2023/07/09 04:32:31;;;;;;;9.13;4.88;;;;;;;-143.98;0.00;101379.13;6231196;23;20072;-86
2023/07/09 04:35:06;;;;;;;5.70;4.05;;;;;;;-143.98;0.00;101379.13;6201629;23;20035;-86
2023/07/09 04:37:45;;;;;;;8.65;4.50;;;;;;;-143.98;0.00;101379.13;6200759;23;20298;-86
2023/07/09 04:40:24;;;;;;;9.38;4.65;;;;;;;-143.98;0.00;101379.13;6228547;23;20327;-86
2023/07/09 04:42:54;;;;;;;6.68;4.60;;;;;;;-143.98;0.00;101379.13;6203024;23;20065;-86
2023/07/09 04:45:25;;;;;;;9.05;4.53;;;;;;;-143.98;0.00;101379.13;6199362;23;20170;-86
2023/07/09 04:47:56;;;;;;;10.57;4.15;;;;;;;-143.98;0.00;101379.13;6204031;23;20047;-86
2023/07/09 04:50:32;;;;;;;6.80;4.72;;;;;;;-143.98;0.00;101379.13;6203202;23;20024;-85
2023/07/09 04:53:18;;;;;;;6.72;4.05;;;;;;;-143.98;0.00;101379.13;6202715;23;20024;-86
2023/07/09 04:55:51;;;;;;;9.52;4.28;;;;;;;-143.98;0.00;101379.13;6201809;23;20028;-85
2023/07/09 04:58:20;;;;;;;8.70;4.07;;;;;;;-143.98;0.00;101379.13;6226008;23;20197;-86
2023/07/09 05:00:50;;;;;;;7.70;4.25;;;;;;;-143.98;0.00;101379.13;6201032;23;20496;-85
2023/07/09 05:03:21;;;;;;;6.63;4.60;;;;;;;-143.98;0.00;101379.13;6227507;23;20384;-86
2023/07/09 05:06:05;;;;;;;9.23;4.60;;;;;;;-143.98;0.00;101379.13;6228078;23;20028;-86
2023/07/09 05:08:53;;;;;;;8.90;5.37;;;;;;;-143.98;0.00;101379.13;6203678;23;20028;-86
2023/07/09 05:11:28;;;;;;;7.53;4.95;;;;;;;-143.98;0.00;101379.13;6200579;23;20028;-85
2023/07/09 05:13:55;;;;;;;7.85;4.70;;;;;;;-143.98;0.00;101379.13;6204697;22;20055;-85
2023/07/09 05:16:59;;;;;;;6.38;4.35;;;;;;;-143.98;0.00;101379.13;6249350;22;20480;-85
2023/07/09 05:19:44;;;;;;;8.40;4.78;;;;;;;-143.98;0.00;101379.13;6237785;23;20046;-86
2023/07/09 05:22:15;;;;;;;6.53;4.35;;;;;;;-143.98;0.00;101379.13;6201111;23;20028;-86
2023/07/09 05:24:53;;;;;;;9.38;4.95;;;;;;;-143.98;0.00;101379.13;6206976;23;20080;-86
2023/07/09 05:27:53;;;;;;;13.02;4.85;;;;;;;-143.98;0.00;101379.13;6221954;23;20200;-86
2023/07/09 05:30:21;;;;;;;6.88;4.07;;;;;;;-143.98;0.00;101379.13;6224260;23;20028;-85
2023/07/09 05:32:49;;;;;;;6.72;3.95;;;;;;;-143.98;0.00;101379.13;6224076;23;20028;-86
2023/07/09 05:35:37;;;;;;;10.13;4.43;;;;;;;-143.98;0.00;101379.13;6229004;23;20024;-86
2023/07/09 05:38:18;;;;;;;6.60;4.38;;;;;;;-143.98;0.00;101379.13;6229856;23;20035;-87
2023/07/09 05:40:48;;;;;;;5.80;3.80;;;;;;;-143.98;0.00;101379.13;6200248;23;20024;-87
2023/07/09 05:43:15;;;;;;;8.23;4.05;;;;;;;-143.98;0.00;101379.13;6199666;23;20039;-85
2023/07/09 05:45:44;;;;;;;6.30;3.92;;;;;;;-143.98;0.00;101379.13;6200146;23;20065;-86
2023/07/09 05:48:26;;;;;;;4.50;3.53;;;;;;;-143.98;0.00;101379.13;6225103;23;20204;-87
2023/07/09 05:50:56;;;;;;;6.10;3.83;;;;;;;-143.98;0.00;101379.13;6226243;23;20035;-87
2023/07/09 05:53:52;;;;;;;6.57;3.75;;;;;;;-143.98;0.00;101379.13;6197261;23;20082;-86
2023/07/09 05:56:24;;;;;;;5.85;4.25;;;;;;;-143.98;0.00;101379.13;6226856;23;20024;-86
2023/07/09 05:58:52;;;;;;;4.70;3.65;;;;;;;-143.98;0.00;101379.13;6228053;23;20024;-87
2023/07/09 06:01:45;;;;;;;7.22;3.95;;;;;;;-143.98;0.00;101379.13;6229163;23;20024;-87
2023/07/09 06:04:26;;;;;;;5.82;3.90;;;;;;;-143.98;0.00;101379.13;6227828;23;20144;-87
2023/07/09 06:06:53;;;;;;;9.18;4.47;;;;;;;-143.98;0.00;101379.13;6225682;23;20051;-87
2023/07/09 06:09:31;;;;;;;7.10;4.13;;;;;;;-143.98;0.00;101379.13;6202504;23;20345;-87
2023/07/09 06:12:01;;;;;;;7.40;4.38;;;;;;;-143.98;0.00;101379.13;6227583;23;20080;-87
2023/07/09 06:14:38;;;;;;;6.95;3.97;;;;;;;-143.98;0.00;101379.13;6201650;23;20012;-87
2023/07/09 06:17:20;;;;;;;6.78;4.32;;;;;;;-143.98;0.00;101379.13;6234816;23;20233;-85
2023/07/09 06:19:50;;;;;;;7.47;3.90;;;;;;;-143.98;0.00;101379.13;6209442;23;20028;-86
2023/07/09 06:22:33;;;;;;;9.48;4.13;;;;;;;-143.98;0.00;101379.13;6230522;23;20028;-86
2023/07/09 06:25:00;;;;;;;5.97;3.90;;;;;;;-143.98;0.00;101379.13;6201622;23;20027;-86
2023/07/09 06:27:41;;;;;;;9.95;3.13;;;;;;;-143.98;0.00;101379.13;6204161;23;20048;-86
2023/07/09 06:30:19;;;;;;;5.32;3.83;;;;;;;-143.98;0.00;101379.13;6199237;23;20028;-85
2023/07/09 06:32:58;;;;;;;6.10;3.65;;;;;;;-143.98;0.00;101379.13;6200516;23;20028;-86
2023/07/09 06:35:26;;;;;;;8.55;4.70;;;;;;;-143.98;0.00;101379.13;6199519;23;20043;-86
2023/07/09 06:37:59;;;;;;;7.65;4.15;;;;;;;-143.98;0.00;101379.13;6200160;23;20031;-87
2023/07/09 06:40:26;;;;;;;5.88;3.53;;;;;;;-143.98;0.00;101379.13;6199462;23;20078;-86
2023/07/09 06:42:54;;;;;;;4.75;3.83;;;;;;;-143.98;0.00;101379.13;6198024;23;20028;-86
2023/07/09 06:45:21;;;;;;;6.32;4.30;;;;;;;-143.98;0.00;101379.13;6203869;22;20036;-86
2023/07/09 06:47:55;;;;;;;5.57;3.65;;;;;;;-143.98;0.00;101379.13;6213363;23;20039;-86
2023/07/09 06:50:28;;;;;;;10.18;4.35;;;;;;;-143.98;0.00;101379.13;6235408;23;20028;-87
2023/07/09 06:53:00;;;;;;;6.32;4.10;;;;;;;-143.98;0.00;101379.13;6232911;23;20187;-87
2023/07/09 06:55:46;;;;;;;8.95;4.28;;;;;;;-143.98;0.00;101379.13;6199930;23;20367;-86
2023/07/09 06:58:13;;;;;;;5.38;4.30;;;;;;;-143.98;0.00;101379.13;6202649;23;20028;-86
2023/07/09 07:00:45;;;;;;;5.65;3.70;;;;;;;-143.98;0.00;101379.13;6205986;23;20216;-86
2023/07/09 07:03:15;;;;;;;4.97;3.95;;;;;;;-143.98;0.00;101379.13;6225326;23;20039;-86
2023/07/09 07:05:44;;;;;;;8.05;4.43;;;;;;;-143.98;0.00;101379.13;6202114;23;20382;-86
2023/07/09 07:08:20;;;;;;;8.85;4.40;;;;;;;-143.98;0.00;101379.13;6221551;23;20141;-87
2023/07/09 07:10:50;;;;;;;5.35;4.03;;;;;;;-143.98;0.00;101379.13;6198133;23;20028;-86
2023/07/09 07:13:22;;;;;;;4.85;3.67;;;;;;;-143.98;0.00;101379.13;6197889;23;20050;-86
2023/07/09 07:15:59;;;;;;;8.85;3.90;;;;;;;-143.98;0.00;101379.13;6201543;23;20134;-86
2023/07/09 07:18:30;;;;;;;5.05;3.85;;;;;;;-143.98;0.00;101379.13;6221473;23;20070;-87
2023/07/09 07:21:01;;;;;;;8.98;3.70;;;;;;;-143.98;0.00;101379.13;6195898;23;20028;-87
2023/07/09 07:23:29;;;;;;;5.25;4.00;;;;;;;-143.98;0.00;101379.13;6222345;23;20080;-87
2023/07/09 07:26:10;;;;;;;4.85;3.60;;;;;;;-143.98;0.00;101379.13;6200273;23;20039;-87
2023/07/09 07:28:52;;;;;;;8.02;4.35;;;;;;;-143.98;0.00;101379.13;6195915;23;20271;-86
2023/07/09 07:31:22;;;;;;;5.57;3.65;;;;;;;-143.98;0.00;101379.13;6206106;23;20081;-86
2023/07/09 07:33:53;;;;;;;6.70;4.05;;;;;;;-143.98;0.00;101379.13;6195779;23;20027;-86
2023/07/09 07:36:23;;;;;;;8.73;3.75;;;;;;;-143.98;0.00;101379.13;6196980;23;20028;-86
2023/07/09 07:39:00;;;;;;;11.95;3.85;;;;;;;-143.98;0.00;101379.13;6248102;23;20088;-86
2023/07/09 07:41:39;;;;;;;8.90;4.53;;;;;;;-143.98;0.00;101379.13;6196927;23;20216;-86
2023/07/09 07:44:19;;;;;;;5.35;3.97;;;;;;;-143.98;0.00;101379.13;6195756;23;20028;-86
2023/07/09 07:46:49;;;;;;;6.95;3.80;;;;;;;-143.98;0.00;101379.13;6197205;23;20170;-87
2023/07/09 07:49:28;;;;;;;8.27;4.28;;;;;;;-143.98;0.00;101379.13;6201627;23;20243;-87
2023/07/09 07:52:05;;;;;;;7.40;4.30;;;;;;;-143.98;0.00;101379.13;6248158;23;20135;-87
2023/07/09 07:54:42;;;;;;;7.47;4.20;;;;;;;-143.98;0.00;101379.13;6199335;23;20035;-86
2023/07/09 07:57:14;;;;;;;6.60;4.03;;;;;;;-143.98;0.00;101379.13;6224596;23;20040;-89
2023/07/09 07:59:48;;;;;;;9.45;4.05;;;;;;;-143.98;0.00;101379.13;6252631;23;20055;-89
2023/07/09 08:02:30;;;;;;;5.55;4.13;;;;;;;-143.98;0.00;101379.13;6200945;23;20080;-88
2023/07/09 08:05:14;;;;;;;10.13;3.80;;;;;;;-143.98;0.00;101379.13;6199834;23;20024;-89
2023/07/09 08:07:50;;;;;;;9.00;3.60;;;;;;;-143.98;0.00;101379.13;6200620;23;20028;-89
2023/07/09 08:10:30;;;;;;;7.18;4.03;;;;;;;-143.98;0.00;101379.13;6201320;23;20074;-89
2023/07/09 08:13:00;;;;;;;7.10;3.67;;;;;;;-143.98;0.00;101379.13;6201745;23;20058;-88
2023/07/09 08:15:45;;;;;;;6.85;4.25;;;;;;;-143.98;0.00;101379.13;6197830;23;20069;-88
2023/07/09 08:18:17;;;;;;;5.50;3.70;;;;;;;-143.98;0.00;101379.13;6220083;23;20093;-88
2023/07/09 08:20:48;;;;;;;4.38;3.30;;;;;;;-143.98;0.00;101379.13;6221823;23;20038;-87
2023/07/09 08:23:17;;;;;;;8.32;3.65;;;;;;;-143.98;0.00;101379.13;6196596;23;20153;-86
2023/07/09 08:26:01;;;;;;;8.82;3.80;;;;;;;-143.98;0.00;101379.13;6202826;23;20028;-87
2023/07/09 08:28:30;;;;;;;6.40;4.07;;;;;;;-143.98;0.00;101379.13;6199271;23;20042;-86
2023/07/09 08:31:09;;;;;;;8.05;3.90;;;;;;;-143.98;0.00;101379.13;6198495;23;20055;-86
2023/07/09 08:33:39;;;;;;;4.78;3.70;;;;;;;-143.98;0.00;101379.13;6201258;23;20051;-87
2023/07/09 08:36:08;;;;;;;6.38;3.35;;;;;;;-143.98;0.00;101379.13;6196779;23;20024;-86
2023/07/09 08:38:36;;;;;;;7.15;3.45;;;;;;;-143.98;0.00;101379.13;6198369;23;20024;-87
2023/07/09 08:41:14;;;;;;;6.97;3.35;;;;;;;-143.98;0.00;101379.13;6196856;23;20378;-87
2023/07/09 08:44:13;;;;;;;6.75;3.50;;;;;;;-143.98;0.00;101379.13;6221357;23;20028;-87
2023/07/09 08:47:24;;;;;;;5.78;3.92;;;;;;;-143.98;0.00;101379.13;6221435;23;20024;-86
2023/07/09 08:50:18;;;;;;;8.43;3.72;;;;;;;-143.98;0.00;101379.13;6244727;23;20032;-87
2023/07/09 08:52:46;;;;;;;5.57;3.70;;;;;;;-143.98;0.00;101379.13;6195831;23;20024;-87
2023/07/09 08:55:50;;;;;;;7.25;3.53;;;;;;;-143.98;0.00;101379.13;6197456;23;20024;-86
2023/07/09 08:58:41;;;;;;;7.97;3.67;;;;;;;-143.98;0.00;101379.13;6220669;23;20032;-86
2023/07/09 09:01:27;;;;;;;5.70;3.80;;;;;;;-143.98;0.00;101379.13;6194439;23;20083;-85
2023/07/09 09:04:11;;;;;;;7.15;3.60;;;;;;;-143.98;0.00;101379.13;6201040;23;20024;-87
2023/07/09 09:06:48;;;;;;;6.75;3.72;;;;;;;-143.98;0.00;101379.13;6221492;23;20032;-87
2023/07/09 09:09:43;;;;;;;6.00;2.97;;;;;;;-143.98;0.00;101379.13;6196995;23;20024;-86
2023/07/09 09:12:19;;;;;;;4.35;3.92;;;;;;;-143.98;0.00;101379.13;6193801;23;20087;-86
2023/07/09 09:15:07;;;;;;;5.78;3.45;;;;;;;-143.98;0.00;101379.13;6229498;23;20026;-87
2023/07/09 09:17:39;;;;;;;6.13;3.67;;;;;;;-143.98;0.00;101379.13;6212324;23;20024;-86
2023/07/09 09:20:22;;;;;;;6.10;3.63;;;;;;;-143.98;0.00;101379.13;6202350;23;20047;-86
2023/07/09 09:23:17;;;;;;;3.92;3.50;;;;;;;-143.98;0.00;101379.13;6233167;23;20076;-86
2023/07/09 09:25:59;;;;;;;5.75;3.70;;;;;;;-143.98;0.00;101379.13;6201124;23;20452;-87
2023/07/09 09:28:46;;;;;;;11.57;4.35;;;;;;;-143.98;0.00;101379.13;6202334;23;20074;-88
2023/07/09 09:31:49;;;;;;;8.23;3.70;;;;;;;-143.98;0.00;101379.13;6199779;23;20028;-87
2023/07/09 09:34:44;;;;;;;5.78;3.50;;;;;;;-143.98;0.00;101379.13;6201676;23;20039;-87
2023/07/09 09:37:33;;;;;;;5.18;3.15;;;;;;;-143.98;0.00;101379.13;6196752;23;20024;-86
2023/07/09 09:40:04;;;;;;;4.20;3.80;;;;;;;-143.98;0.00;101379.13;6200861;23;20031;-86
2023/07/09 09:42:44;;;;;;;5.03;3.47;;;;;;;-143.98;0.00;101379.13;6205489;23;20028;-87
2023/07/09 09:45:20;;;;;;;11.05;3.85;;;;;;;-143.98;0.00;101379.13;6236204;23;20088;-87
2023/07/09 09:47:59;;;;;;;5.55;3.53;;;;;;;-143.98;0.00;101379.13;6204364;23;20292;-87
2023/07/09 09:50:37;;;;;;;6.22;3.63;;;;;;;-143.98;0.00;101379.13;6203594;23;20024;-88
2023/07/09 09:53:19;;;;;;;5.78;3.47;;;;;;;-143.98;0.00;101379.13;6223821;23;20042;-87
2023/07/09 09:55:54;;;;;;;6.65;3.63;;;;;;;-143.98;0.00;101379.13;6197310;23;20076;-86
2023/07/09 09:58:28;;;;;;;5.75;3.83;;;;;;;-143.98;0.00;101379.13;6194298;23;20115;-87
2023/07/09 10:00:58;;;;;;;4.93;3.55;;;;;;;-143.98;0.00;101379.13;6220263;23;20414;-86
2023/07/09 10:03:51;;;;;;;5.55;3.55;;;;;;;-143.98;0.00;101379.13;6193152;23;20036;-86
2023/07/09 10:06:44;;;;;;;5.50;3.45;;;;;;;-143.98;0.00;101379.13;6195656;23;20034;-87
2023/07/09 10:09:32;;;;;;;6.63;3.70;;;;;;;-143.98;0.00;101379.13;6217776;23;20028;-87
2023/07/09 10:12:24;;;;;;;9.55;4.50;;;;;;;-143.98;0.00;101379.13;6216816;23;20086;-88
2023/07/09 10:15:07;;;;;;;7.97;3.95;;;;;;;-143.98;0.00;101379.13;6242881;23;20035;-87
2023/07/09 10:17:40;;;;;;;8.05;3.40;;;;;;;-143.98;0.00;101379.13;6218181;23;20055;-87
2023/07/09 10:20:32;;;;;;;5.82;3.85;;;;;;;-143.98;0.00;101379.13;6188428;23;20067;-87
2023/07/09 10:23:44;;;;;;;7.18;3.78;;;;;;;-143.98;0.00;101379.13;6190379;23;20107;-87
2023/07/09 10:27:03;;;;;;;6.93;3.95;;;;;;;-143.98;0.00;101379.13;6217887;23;20035;-87
2023/07/09 10:30:23;;;;;;;6.78;4.10;;;;;;;-143.98;0.00;101379.13;6196185;23;20028;-87
2023/07/09 10:33:36;;;;;;;11.32;4.22;;;;;;;-143.98;0.00;101379.13;6127267;23;20029;-87
2023/07/09 10:36:56;;;;;;;6.10;4.00;;;;;;;-143.98;0.00;101379.13;6217181;23;20024;-86
2023/07/09 10:39:47;;;;;;;5.30;3.53;;;;;;;-143.98;0.00;101379.13;6197820;23;20461;-86
2023/07/09 10:42:24;;;;;;;;;;;;;;;-143.98;0.00;101379.13;6198270;23;20398;-87
2023/07/09 10:45:05;;;;;;;7.00;3.83;;;;;;;-143.98;0.00;101379.13;6217759;23;20090;-86
2023/07/09 10:47:48;;;;;;;5.00;3.60;;;;;;;-143.98;0.00;101379.13;6193235;23;20035;-87
2023/07/09 10:50:41;;;;;;;4.40;3.15;;;;;;;-143.98;0.00;101379.13;6192374;23;20024;-87
2023/07/09 10:53:30;;;;;;;3.92;3.30;;;;;;;-143.98;0.00;101379.13;6194788;23;20023;-87
2023/07/09 10:56:19;;;;;;;5.60;4.15;;;;;;;-143.98;0.00;101379.13;6192945;23;20028;-87
2023/07/09 10:59:26;;;;;;;5.55;3.83;;;;;;;-143.98;0.00;101379.13;6216198;23;20088;-85
2023/07/09 11:02:26;;;;;;;6.45;3.92;;;;;;;-143.98;0.00;101379.13;6192549;23;20217;-86
2023/07/09 11:05:13;;;;;;;6.47;3.90;;;;;;;-143.98;0.00;101379.13;6211236;23;20293;-87
2023/07/09 11:07:58;;;;;;;8.27;3.60;;;;;;;-143.98;0.00;101379.13;6217810;23;20016;-87
2023/07/09 11:10:51;;;;;;;4.40;3.25;;;;;;;-143.98;0.00;101379.13;6196596;23;20084;-87
2023/07/09 11:13:44;;;;;;;8.88;3.92;;;;;;;-143.98;0.00;101379.13;6198409;23;20025;-87
2023/07/09 11:16:40;;;;;;;8.02;3.67;;;;;;;-143.98;0.00;101379.13;6203021;23;20051;-85
2023/07/09 11:19:18;;;;;;;6.65;4.38;;;;;;;-143.98;0.00;101379.13;6196410;23;20264;-86
2023/07/09 11:22:22;;;;;;;6.97;5.33;;;;;;;-143.98;0.00;101379.13;6194355;23;20090;-87
2023/07/09 11:25:13;;;;;;;6.28;4.35;;;;;;;-143.98;0.00;101379.13;6198615;23;20032;-87
2023/07/09 11:27:55;;;;;;;7.60;3.85;;;;;;;-143.98;0.00;101379.13;6195673;23;20082;-87
2023/07/09 11:30:27;;;;;;;7.47;3.75;;;;;;;-143.98;0.00;101379.13;6196500;23;20183;-87
2023/07/09 11:32:57;;;;;;;5.63;3.40;;;;;;;-143.98;0.00;101379.13;6192603;23;20039;-87
2023/07/09 11:35:54;;;;;;;4.93;3.50;;;;;;;-143.98;0.00;101379.13;6205242;23;20024;-87
2023/07/09 11:38:45;;;;;;;5.50;3.75;;;;;;;-143.98;0.00;101379.13;6219142;22;20023;-86
2023/07/09 11:41:39;;;;;;;5.63;3.78;;;;;;;-143.98;0.00;101379.13;6219997;23;20027;-87
2023/07/09 11:44:29;;;;;;;7.80;4.50;;;;;;;-143.98;0.00;101379.13;6196658;23;20059;-86
2023/07/09 11:47:40;;;;;;;7.97;4.70;;;;;;;-143.98;0.00;101379.13;6224080;23;20232;-86
2023/07/09 11:50:31;;;;;;;8.65;3.97;;;;;;;-143.98;0.00;101379.13;6198579;23;20073;-87
2023/07/09 11:53:44;;;;;;;7.70;4.15;;;;;;;-143.98;0.00;101379.13;6195967;23;20043;-86
2023/07/09 11:56:22;;;;;;;7.50;4.00;;;;;;;-143.98;0.00;101379.13;6223580;23;20304;-87
2023/07/09 11:59:08;;;;;;;6.18;3.97;;;;;;;-143.98;0.00;101379.13;6195877;23;20086;-86
2023/07/09 12:02:03;;;;;;;6.60;4.22;;;;;;;-143.98;0.00;101379.13;6194470;23;20024;-87
2023/07/09 12:04:51;;;;;;;6.88;3.90;;;;;;;-143.98;0.00;101379.13;6200285;23;20036;-87
2023/07/09 12:07:22;;;;;;;5.32;3.95;;;;;;;-143.98;0.00;101379.13;6216955;23;20201;-87
2023/07/09 12:09:58;;;;;;;5.60;4.03;;;;;;;-143.98;0.00;101379.13;6194643;23;20028;-86
2023/07/09 12:12:33;;;;;;;6.47;3.83;;;;;;;-143.98;0.00;101379.13;6222808;23;20268;-87
2023/07/09 12:15:11;;;;;;;4.40;3.60;;;;;;;-143.98;0.00;101379.13;6182841;23;20030;-87
2023/07/09 12:18:04;;;;;;;6.57;3.90;;;;;;;-143.98;0.00;101379.13;6196596;23;20439;-87